sensor_id;sensor_type;location;lat;lon;timestamp;temperature;humidity
35244;DHT22;37916;52.160;21.066;2023-01-24T00:09:28;2.00;90.30
35244;DHT22;37916;52.160;21.066;2023-01-24T00:19:29;2.20;90.40
35244;DHT22;37916;52.160;21.066;2023-01-24T00:29:29;2.10;90.20
35244;DHT22;37916;52.160;21.066;2023-01-24T00:39:30;2.10;90.20
35244;DHT22;37916;52.160;21.066;2023-01-24T00:49:31;2.30;90.40
35244;DHT22;37916;52.160;21.066;2023-01-24T00:59:34;2.10;90.10
35244;DHT22;37916;52.160;21.066;2023-01-24T01:09:35;2.10;90.20
35244;DHT22;37916;52.160;21.066;2023-01-24T01:19:35;2.20;90.10
35244;DHT22;37916;52.160;21.066;2023-01-24T01:29:36;2.20;90.10
35244;DHT22;37916;52.160;21.066;2023-01-24T01:39:37;2.20;90.10
35244;DHT22;37916;52.160;21.066;2023-01-24T01:49:40;2.20;90.20
35244;DHT22;37916;52.160;21.066;2023-01-24T02:00:02;2.40;90.10
35244;DHT22;37916;52.160;21.066;2023-01-24T02:10:05;2.20;90.00
35244;DHT22;37916;52.160;21.066;2023-01-24T02:20:15;2.30;90.10
35244;DHT22;37916;52.160;21.066;2023-01-24T02:30:17;2.40;89.60
35244;DHT22;37916;52.160;21.066;2023-01-24T02:40:17;2.40;89.70
35244;DHT22;37916;52.160;21.066;2023-01-24T02:50:20;2.30;89.80
35244;DHT22;37916;52.160;21.066;2023-01-24T03:00:22;2.30;89.80
35244;DHT22;37916;52.160;21.066;2023-01-24T03:10:23;2.40;90.10
35244;DHT22;37916;52.160;21.066;2023-01-24T03:20:23;2.50;89.90
35244;DHT22;37916;52.160;21.066;2023-01-24T03:30:43;2.40;89.90
35244;DHT22;37916;52.160;21.066;2023-01-24T03:41:02;2.30;90.10
35244;DHT22;37916;52.160;21.066;2023-01-24T03:51:04;2.20;90.00
35244;DHT22;37916;52.160;21.066;2023-01-24T04:01:23;2.30;90.10
35244;DHT22;37916;52.160;21.066;2023-01-24T04:11:24;2.30;89.90
35244;DHT22;37916;52.160;21.066;2023-01-24T04:21:27;2.50;90.10
35244;DHT22;37916;52.160;21.066;2023-01-24T04:31:33;2.40;89.90
35244;DHT22;37916;52.160;21.066;2023-01-24T04:41:37;2.30;90.00
35244;DHT22;37916;52.160;21.066;2023-01-24T04:51:37;2.30;90.10
35244;DHT22;37916;52.160;21.066;2023-01-24T05:01:42;2.30;89.80
35244;DHT22;37916;52.160;21.066;2023-01-24T05:11:45;2.40;89.70
35244;DHT22;37916;52.160;21.066;2023-01-24T05:21:49;2.40;90.10
35244;DHT22;37916;52.160;21.066;2023-01-24T05:31:53;2.50;90.00
35244;DHT22;37916;52.160;21.066;2023-01-24T05:41:53;2.40;90.00
35244;DHT22;37916;52.160;21.066;2023-01-24T05:51:54;2.40;89.80
35244;DHT22;37916;52.160;21.066;2023-01-24T06:01:57;2.40;89.80
35244;DHT22;37916;52.160;21.066;2023-01-24T06:12:06;2.40;89.80
35244;DHT22;37916;52.160;21.066;2023-01-24T06:32:27;2.60;89.70
35244;DHT22;37916;52.160;21.066;2023-01-24T06:42:31;2.50;90.00
35244;DHT22;37916;52.160;21.066;2023-01-24T06:52:31;2.50;89.90
35244;DHT22;37916;52.160;21.066;2023-01-24T07:02:32;2.50;89.70
35244;DHT22;37916;52.160;21.066;2023-01-24T07:12:33;2.70;89.90
35244;DHT22;37916;52.160;21.066;2023-01-24T07:22:36;2.40;89.80
35244;DHT22;37916;52.160;21.066;2023-01-24T07:32:40;2.60;89.70
35244;DHT22;37916;52.160;21.066;2023-01-24T07:42:41;2.70;89.60
35244;DHT22;37916;52.160;21.066;2023-01-24T07:52:45;2.90;89.60
35244;DHT22;37916;52.160;21.066;2023-01-24T08:02:45;2.90;89.70
35244;DHT22;37916;52.160;21.066;2023-01-24T08:12:51;2.80;89.00
35244;DHT22;37916;52.160;21.066;2023-01-24T08:22:54;3.20;88.80
35244;DHT22;37916;52.160;21.066;2023-01-24T08:33:02;3.40;88.80
35244;DHT22;37916;52.160;21.066;2023-01-24T08:43:03;2.80;89.10
35244;DHT22;37916;52.160;21.066;2023-01-24T08:53:04;3.20;88.90
35244;DHT22;37916;52.160;21.066;2023-01-24T09:03:05;3.30;88.00
35244;DHT22;37916;52.160;21.066;2023-01-24T09:13:05;3.70;88.40
35244;DHT22;37916;52.160;21.066;2023-01-24T09:23:10;4.30;87.00
35244;DHT22;37916;52.160;21.066;2023-01-24T09:33:12;3.70;87.70
35244;DHT22;37916;52.160;21.066;2023-01-24T09:43:34;3.80;87.40
35244;DHT22;37916;52.160;21.066;2023-01-24T09:53:45;4.00;85.80
35244;DHT22;37916;52.160;21.066;2023-01-24T10:03:49;3.90;86.40
35244;DHT22;37916;52.160;21.066;2023-01-24T10:24:01;4.00;86.60
35244;DHT22;37916;52.160;21.066;2023-01-24T10:44:29;3.90;86.60
35244;DHT22;37916;52.160;21.066;2023-01-24T10:54:30;3.80;87.10
35244;DHT22;37916;52.160;21.066;2023-01-24T11:04:40;3.80;87.60
35244;DHT22;37916;52.160;21.066;2023-01-24T11:14:47;3.50;87.60
35244;DHT22;37916;52.160;21.066;2023-01-24T11:24:52;3.40;87.40
35244;DHT22;37916;52.160;21.066;2023-01-24T12:07:03;3.70;87.20
35244;DHT22;37916;52.160;21.066;2023-01-24T12:27:45;3.80;87.50
35244;DHT22;37916;52.160;21.066;2023-01-24T12:38:10;4.10;86.60
35244;DHT22;37916;52.160;21.066;2023-01-24T12:48:22;4.00;86.60
35244;DHT22;37916;52.160;21.066;2023-01-24T12:58:40;4.40;85.50
35244;DHT22;37916;52.160;21.066;2023-01-24T13:29:51;4.00;86.10
35244;DHT22;37916;52.160;21.066;2023-01-24T13:40:05;4.20;87.00
35244;DHT22;37916;52.160;21.066;2023-01-24T13:50:10;4.30;86.70
35244;DHT22;37916;52.160;21.066;2023-01-24T14:00:14;4.30;86.60
35244;DHT22;37916;52.160;21.066;2023-01-24T14:10:19;4.10;86.50
35244;DHT22;37916;52.160;21.066;2023-01-24T14:20:45;4.40;86.30
35244;DHT22;37916;52.160;21.066;2023-01-24T14:30:57;4.20;86.40
35244;DHT22;37916;52.160;21.066;2023-01-24T14:40:58;4.40;86.40
35244;DHT22;37916;52.160;21.066;2023-01-24T14:51:07;3.90;86.50
35244;DHT22;37916;52.160;21.066;2023-01-24T15:01:32;3.80;87.20
35244;DHT22;37916;52.160;21.066;2023-01-24T15:11:35;3.80;87.30
35244;DHT22;37916;52.160;21.066;2023-01-24T15:21:44;3.80;87.10
35244;DHT22;37916;52.160;21.066;2023-01-24T15:31:49;3.80;87.00
35244;DHT22;37916;52.160;21.066;2023-01-24T15:41:50;3.70;86.90
35244;DHT22;37916;52.160;21.066;2023-01-24T16:02:12;3.50;87.40
35244;DHT22;37916;52.160;21.066;2023-01-24T16:12:15;3.60;88.00
35244;DHT22;37916;52.160;21.066;2023-01-24T16:22:16;3.70;87.60
35244;DHT22;37916;52.160;21.066;2023-01-24T16:32:22;3.70;87.40
35244;DHT22;37916;52.160;21.066;2023-01-24T16:42:28;3.60;87.20
35244;DHT22;37916;52.160;21.066;2023-01-24T16:52:29;3.40;87.80
35244;DHT22;37916;52.160;21.066;2023-01-24T17:02:30;3.40;88.40
35244;DHT22;37916;52.160;21.066;2023-01-24T17:12:31;3.30;89.20
35244;DHT22;37916;52.160;21.066;2023-01-24T17:22:32;3.20;89.40
35244;DHT22;37916;52.160;21.066;2023-01-24T17:32:32;3.10;89.00
35244;DHT22;37916;52.160;21.066;2023-01-24T17:42:37;3.10;89.00
35244;DHT22;37916;52.160;21.066;2023-01-24T17:52:37;2.90;89.90
35244;DHT22;37916;52.160;21.066;2023-01-24T18:02:38;3.10;90.00
35244;DHT22;37916;52.160;21.066;2023-01-24T18:12:40;2.90;89.80
35244;DHT22;37916;52.160;21.066;2023-01-24T18:22:43;2.70;90.00
35244;DHT22;37916;52.160;21.066;2023-01-24T18:32:44;2.70;90.10
35244;DHT22;37916;52.160;21.066;2023-01-24T18:42:48;2.80;90.10
35244;DHT22;37916;52.160;21.066;2023-01-24T18:52:55;2.90;90.00
35244;DHT22;37916;52.160;21.066;2023-01-24T19:02:56;2.90;89.90
35244;DHT22;37916;52.160;21.066;2023-01-24T19:12:57;2.70;89.60
35244;DHT22;37916;52.160;21.066;2023-01-24T19:23:01;2.90;89.90
35244;DHT22;37916;52.160;21.066;2023-01-24T19:33:02;3.00;89.70
35244;DHT22;37916;52.160;21.066;2023-01-24T19:43:02;3.10;89.80
35244;DHT22;37916;52.160;21.066;2023-01-24T19:53:07;3.10;89.80
35244;DHT22;37916;52.160;21.066;2023-01-24T20:03:11;3.00;89.70
35244;DHT22;37916;52.160;21.066;2023-01-24T20:13:14;3.00;89.60
35244;DHT22;37916;52.160;21.066;2023-01-24T20:23:15;2.60;89.60
35244;DHT22;37916;52.160;21.066;2023-01-24T20:33:16;2.70;89.70
35244;DHT22;37916;52.160;21.066;2023-01-24T20:43:17;2.60;89.70
35244;DHT22;37916;52.160;21.066;2023-01-24T20:53:18;2.70;89.60
35244;DHT22;37916;52.160;21.066;2023-01-24T21:03:23;2.90;89.60
35244;DHT22;37916;52.160;21.066;2023-01-24T21:13:28;3.00;89.30
35244;DHT22;37916;52.160;21.066;2023-01-24T21:23:29;3.20;89.60
35244;DHT22;37916;52.160;21.066;2023-01-24T21:33:30;3.20;89.60
35244;DHT22;37916;52.160;21.066;2023-01-24T21:43:31;3.10;88.60
35244;DHT22;37916;52.160;21.066;2023-01-24T21:53:32;3.10;88.60
35244;DHT22;37916;52.160;21.066;2023-01-24T22:03:51;3.10;88.60
35244;DHT22;37916;52.160;21.066;2023-01-24T22:13:52;3.20;88.00
35244;DHT22;37916;52.160;21.066;2023-01-24T22:24:01;3.30;87.50
35244;DHT22;37916;52.160;21.066;2023-01-24T22:34:03;3.30;87.50
35244;DHT22;37916;52.160;21.066;2023-01-24T22:44:04;3.20;86.00
35244;DHT22;37916;52.160;21.066;2023-01-24T22:54:05;2.80;86.00
35244;DHT22;37916;52.160;21.066;2023-01-24T23:04:07;2.80;86.30
35244;DHT22;37916;52.160;21.066;2023-01-24T23:14:12;2.70;87.00
35244;DHT22;37916;52.160;21.066;2023-01-24T23:24:32;2.80;86.70
35244;DHT22;37916;52.160;21.066;2023-01-24T23:34:39;2.90;86.40
35244;DHT22;37916;52.160;21.066;2023-01-24T23:44:42;3.00;87.00
35244;DHT22;37916;52.160;21.066;2023-01-24T23:54:43;3.00;85.80
